Amma, West Virginia
Current Conditions -  °F | °C
As of 7:54 PM on Sunday 23 Nov 2014 (Local Time) from KCRW Reporting Station
Light Rain Light Rain  
Wind Chill: 59°   Ceiling: 10000
Heat Index: 59°   Visibility: 9mi
Dew Point: 51°   Wind: 12mph
Humidity: 75%   Direction: 150°SSE
Pressure: 29.62"   Gusts: 23mph
Location:  38.57°N, 81.27°W
Report Text: KCRW 240054Z 15010G20KT 9SM -RA BKN100 OVC140 15/11 A2962 RMK AO2 PK WND 14026/2359 RAB21 SLP030 P0002 T01500106
Loading
Personal Weather Stations






























Interactive Weather Map New forecast layout! Learn more

10-Day Weather Forecast

Advertisements
Track Severe Weather on mobile